354

www.moto.it

MXGP. Gajser e Covington trionfano in Gara-1 a Loket

354
...

MXGP. Gajser e Covington trionfano in Gara-1 a Loket

Gajser vince Gara-1 del GP di Repubblica Ceca davanti a Desalle e Cairoli. Quarta piazza per Paulin seguito da Herlings e Tonus. Febvre si classifica 7° e tiene alle sue spalle Van Horebeek e Strijbos. 

Per la categoria MX2, Covington si aggiudica la prima manche davanti al pilota KTM Jonass e Prado Garcia. Quarto Olsen che anticipa Seewer e Paturel. 13° posto per Cervellin.

CLASSIFICHE

MXGP - Race 1 - Classification

Pos Nr Rider Nat. Fed. Bike Time laps Diff. First Diff. Prev. Bestlaptime in lap Speed
1 243 Gajser, Tim SLO AMZS Honda 35:16.286 19 0:00.000 0:00.000 1:48.731 3 52.5
2 25 Desalle, Clement BEL FMB Kawasaki 35:19.382 19 0:03.096 0:03.096 1:48.544 5 52.6
3 222 Cairoli, Antonio ITA FMI KTM 35:20.344 19 0:04.058 0:00.962 1:47.611 18 53
4 21 Paulin, Gautier FRA MCM Husqvarna 35:27.526 19 0:11.240 0:07.182 1:48.875 11 52.4
5 84 Herlings, Jeffrey NED KNMV KTM 35:27.874 19 0:11.588 0:00.348 1:47.252 17 53.2
6 4 Tonus, Arnaud SUI FMS Yamaha 35:32.764 19 0:16.478 0:04.890 1:49.315 11 52.2
7 461 Febvre, Romain FRA FFM Yamaha 35:42.343 19 0:26.057 0:09.579 1:48.773 13 52.4
8 89 Van Horebeek, Jeremy BEL FMB Yamaha 35:45.765 19 0:29.479 0:03.422 1:49.158 13 52.3
9 22 Strijbos, Kevin BEL FMB Suzuki 35:57.980 19 0:41.694 0:12.215 1:50.417 7 51.7
10 12 Nagl, Maximilian GER DMSB Husqvarna 35:59.802 19 0:43.516 0:01.822 1:50.268 8 51.7
11 259 Coldenhoff, Glenn NED KNMV KTM 36:06.544 19 0:50.258 0:06.742 1:50.698 11 51.5
12 77 Lupino, Alessandro ITA FMI Honda 36:11.384 19 0:55.098 0:04.840 1:50.467 5 51.6
13 911 Tixier, Jordi FRA FFM Kawasaki 36:14.174 19 0:57.888 0:02.790 1:50.013 4 51.8
14 777 Bobryshev, Evgeny RUS MFR Honda 36:18.877 19 1:02.591 0:04.703 1:50.694 6 51.5
15 7 Leok, Tanel EST EMF Husqvarna 36:51.368 19 1:35.082 0:32.491 1:51.071 5 51.4
16 999 Goncalves, Rui POR FMP Husqvarna 36:58.896 19 1:42.610 0:07.528 1:51.877 5 51
17 17 Butron, Jose ESP RFME KTM 37:10.051 19 1:53.765 0:11.155 1:52.491 6 50.7
18 191 Romancik, Jaromir CZE ACCR KTM 37:15.822 19 1:59.536 0:05.771 1:52.669 7 50.6
19 9 de Dycker, Ken BEL FMB Honda 35:24.480 18 1 lap 1 lap 1:53.176 5 50.4
20 27 Jasikonis, Arminas LTU LMSF Suzuki 35:24.774 18 1 lap 0:00.294 1:50.471 18 51.6

MX2 - Grand Prix Race 1 - Classification

Pos Nr Rider Nat. Fed. Bike Time laps Diff. First Diff. Prev. Bestlaptime in lap Speed
1 64 Covington, Thomas USA MUL Husqvarna 35:24.193 18 0:00.000 0:00.000 1:54.370 6 49.9
2 41 Jonass, Pauls LAT LAMSF KTM 35:34.573 18 0:10.380 0:10.380 1:55.191 11 49.5
3 61 Prado Garcia, Jorge ESP RFME KTM 35:40.821 18 0:16.628 0:06.248 1:56.077 11 49.1
4 19 Olsen, Thomas Kjer DEN DMU Husqvarna 35:44.632 18 0:20.439 0:03.811 1:55.795 17 49.3
5 91 Seewer, Jeremy SUI FMS Suzuki 35:45.490 18 0:21.297 0:00.858 1:55.046 14 49.6
6 6 Paturel, Benoit FRA FFM Yamaha 35:46.337 18 0:22.144 0:00.847 1:55.044 18 49.6
7 189 Bogers, Brian NED KNMV KTM 36:04.175 18 0:39.982 0:17.838 1:56.325 5 49
8 96 Lawrence, Hunter AUS MA Suzuki 36:05.254 18 0:41.061 0:01.079 1:56.642 14 48.9
9 81 Hsu, Brian GER MAMS Husqvarna 36:06.788 18 0:42.595 0:01.534 1:55.660 14 49.3
10 426 Mewse, Conrad GBR ACU Husqvarna 36:26.993 18 1:02.800 0:20.205 1:57.273 9 48.6
11 56 Weltin, Marshal USA AMA Kawasaki 36:48.569 18 1:24.376 0:21.576 1:58.285 15 48.2
12 10 Vlaanderen, Calvin NED KNMV KTM 36:52.568 18 1:28.375 0:03.999 1:58.383 14 48.2
13 747 Cervellin, Michele ITA FMI Honda 36:56.396 18 1:32.203 0:03.828 1:59.763 14 47.6
14 14 Beaton, Jed AUS MA Honda 36:57.487 18 1:33.294 0:01.091 1:58.204 12 48.3
15 66 Larranaga Olano, Iker ESP RFME Husqvarna 37:11.467 18 1:47.274 0:13.980 1:58.986 14 47.9
16 76 Fernandez, Ruben ESP RFME Kawasaki 37:20.043 18 1:55.850 0:08.576 1:59.611 14 47.7
17 98 Vaessen, Bas NED KNMV Suzuki 37:23.697 18 1:59.504 0:03.654 1:58.506 14 48.1
18 33 Lieber, Julien BEL FMB KTM 35:29.792 17 1 lap 1 lap 1:57.113 14 48.7
19 102 Sikyna, Richard SVK SMF KTM 35:33.730 17 1 lap 0:03.938 2:00.358 14 47.4
20 95 De Waal, Micha-Boy NED KNMV Honda 35:38.908 17 1 lap 0:05.178 2:00.004 14 47.5